sensor_id;sensor_type;location;lat;lon;timestamp;pressure;altitude;pressure_sealevel;temperature;humidity
21276;BME280;36472;52.170;20.884;2023-05-22T00:00:13;100928.72;;;14.41;67.65
21276;BME280;36472;52.170;20.884;2023-05-22T00:03:04;100934.47;;;14.35;67.74
21276;BME280;36472;52.170;20.884;2023-05-22T00:05:33;100924.22;;;14.30;68.15
21276;BME280;36472;52.170;20.884;2023-05-22T00:08:06;100936.38;;;14.33;67.94
21276;BME280;36472;52.170;20.884;2023-05-22T00:10:38;100927.09;;;14.27;68.30
21276;BME280;36472;52.170;20.884;2023-05-22T00:13:07;100923.81;;;14.24;68.32
21276;BME280;36472;52.170;20.884;2023-05-22T00:15:36;100927.53;;;14.21;69.04
21276;BME280;36472;52.170;20.884;2023-05-22T00:18:06;100925.97;;;14.18;69.06
21276;BME280;36472;52.170;20.884;2023-05-22T00:20:36;100919.09;;;14.16;68.77
21276;BME280;36472;52.170;20.884;2023-05-22T00:23:06;100923.75;;;14.12;68.65
21276;BME280;36472;52.170;20.884;2023-05-22T00:25:38;100926.94;;;14.05;68.77
21276;BME280;36472;52.170;20.884;2023-05-22T00:28:07;100919.13;;;14.03;68.50
21276;BME280;36472;52.170;20.884;2023-05-22T00:30:37;100917.03;;;13.95;69.16
21276;BME280;36472;52.170;20.884;2023-05-22T00:33:07;100920.00;;;13.91;69.56
21276;BME280;36472;52.170;20.884;2023-05-22T00:35:36;100917.59;;;13.88;70.43
21276;BME280;36472;52.170;20.884;2023-05-22T00:38:06;100914.09;;;13.87;69.71
21276;BME280;36472;52.170;20.884;2023-05-22T00:40:36;100913.59;;;13.82;69.87
21276;BME280;36472;52.170;20.884;2023-05-22T00:43:05;100907.44;;;13.81;70.37
21276;BME280;36472;52.170;20.884;2023-05-22T00:45:36;100919.59;;;13.84;70.06
21276;BME280;36472;52.170;20.884;2023-05-22T00:48:06;100919.91;;;13.79;69.88
21276;BME280;36472;52.170;20.884;2023-05-22T00:50:36;100917.38;;;13.78;69.76
21276;BME280;36472;52.170;20.884;2023-05-22T00:53:06;100911.25;;;13.77;69.56
21276;BME280;36472;52.170;20.884;2023-05-22T00:55:36;100919.50;;;13.73;69.97
21276;BME280;36472;52.170;20.884;2023-05-22T00:58:05;100910.84;;;13.71;69.89
21276;BME280;36472;52.170;20.884;2023-05-22T01:00:39;100914.78;;;13.65;70.41
21276;BME280;36472;52.170;20.884;2023-05-22T01:03:10;100916.44;;;13.66;70.77
21276;BME280;36472;52.170;20.884;2023-05-22T01:05:40;100915.50;;;13.67;69.95
21276;BME280;36472;52.170;20.884;2023-05-22T01:08:10;100917.84;;;13.59;69.88
21276;BME280;36472;52.170;20.884;2023-05-22T01:10:39;100917.19;;;13.55;70.01
21276;BME280;36472;52.170;20.884;2023-05-22T01:13:27;100916.03;;;13.59;70.48
21276;BME280;36472;52.170;20.884;2023-05-22T01:16:07;100918.47;;;13.62;71.03
21276;BME280;36472;52.170;20.884;2023-05-22T01:18:47;100924.06;;;13.58;70.83
21276;BME280;36472;52.170;20.884;2023-05-22T01:21:26;100914.66;;;13.54;70.05
21276;BME280;36472;52.170;20.884;2023-05-22T01:24:58;100915.59;;;13.53;70.22
21276;BME280;36472;52.170;20.884;2023-05-22T01:27:59;100916.47;;;13.53;71.20
21276;BME280;36472;52.170;20.884;2023-05-22T01:30:56;100917.72;;;13.47;70.05
21276;BME280;36472;52.170;20.884;2023-05-22T01:33:35;100925.09;;;13.42;70.16
21276;BME280;36472;52.170;20.884;2023-05-22T01:36:09;100920.16;;;13.38;70.45
21276;BME280;36472;52.170;20.884;2023-05-22T01:38:41;100924.06;;;13.32;70.68
21276;BME280;36472;52.170;20.884;2023-05-22T01:41:11;100916.44;;;13.27;70.82
21276;BME280;36472;52.170;20.884;2023-05-22T01:43:41;100918.44;;;13.24;71.00
21276;BME280;36472;52.170;20.884;2023-05-22T01:46:11;100921.09;;;13.24;71.09
21276;BME280;36472;52.170;20.884;2023-05-22T01:48:41;100922.13;;;13.21;71.07
21276;BME280;36472;52.170;20.884;2023-05-22T01:51:17;100921.59;;;13.16;71.28
21276;BME280;36472;52.170;20.884;2023-05-22T01:53:56;100919.16;;;13.13;71.47
21276;BME280;36472;52.170;20.884;2023-05-22T01:56:36;100917.50;;;13.12;71.13
21276;BME280;36472;52.170;20.884;2023-05-22T01:59:15;100921.25;;;13.08;71.35
21276;BME280;36472;52.170;20.884;2023-05-22T02:01:50;100913.78;;;13.02;71.50
21276;BME280;36472;52.170;20.884;2023-05-22T02:04:22;100923.47;;;13.01;71.96
21276;BME280;36472;52.170;20.884;2023-05-22T02:06:52;100923.47;;;13.01;72.07
21276;BME280;36472;52.170;20.884;2023-05-22T02:09:26;100923.78;;;12.97;72.59
21276;BME280;36472;52.170;20.884;2023-05-22T02:11:56;100927.38;;;12.96;72.39
21276;BME280;36472;52.170;20.884;2023-05-22T02:14:28;100924.09;;;12.92;72.75
21276;BME280;36472;52.170;20.884;2023-05-22T02:16:59;100921.47;;;12.92;73.03
21276;BME280;36472;52.170;20.884;2023-05-22T02:19:28;100921.34;;;12.94;73.13
21276;BME280;36472;52.170;20.884;2023-05-22T02:21:57;100928.22;;;12.96;74.12
21276;BME280;36472;52.170;20.884;2023-05-22T02:24:28;100923.78;;;12.97;72.44
21276;BME280;36472;52.170;20.884;2023-05-22T02:26:57;100919.75;;;12.91;72.31
21276;BME280;36472;52.170;20.884;2023-05-22T02:29:26;100918.09;;;12.90;72.49
21276;BME280;36472;52.170;20.884;2023-05-22T02:31:55;100918.47;;;12.84;72.88
21276;BME280;36472;52.170;20.884;2023-05-22T02:34:27;100912.47;;;12.82;72.64
21276;BME280;36472;52.170;20.884;2023-05-22T02:36:58;100911.09;;;12.76;73.22
21276;BME280;36472;52.170;20.884;2023-05-22T02:39:27;100914.47;;;12.78;73.13
21276;BME280;36472;52.170;20.884;2023-05-22T02:41:56;100914.66;;;12.75;73.27
21276;BME280;36472;52.170;20.884;2023-05-22T02:44:25;100905.19;;;12.72;73.33
21276;BME280;36472;52.170;20.884;2023-05-22T02:46:54;100912.03;;;12.75;73.44
21276;BME280;36472;52.170;20.884;2023-05-22T02:49:24;100907.81;;;12.72;73.30
21276;BME280;36472;52.170;20.884;2023-05-22T02:51:54;100906.41;;;12.67;73.18
21276;BME280;36472;52.170;20.884;2023-05-22T02:54:23;100907.47;;;12.64;73.34
21276;BME280;36472;52.170;20.884;2023-05-22T02:56:52;100909.25;;;12.64;73.63
21276;BME280;36472;52.170;20.884;2023-05-22T02:59:21;100907.56;;;12.63;74.19
21276;BME280;36472;52.170;20.884;2023-05-22T03:01:50;100908.09;;;12.68;73.79
21276;BME280;36472;52.170;20.884;2023-05-22T03:04:23;100901.13;;;12.67;73.55
21276;BME280;36472;52.170;20.884;2023-05-22T03:06:53;100891.56;;;12.66;73.83
21276;BME280;36472;52.170;20.884;2023-05-22T03:09:22;100900.19;;;12.68;73.72
21276;BME280;36472;52.170;20.884;2023-05-22T03:11:51;100897.66;;;12.66;73.79
21276;BME280;36472;52.170;20.884;2023-05-22T03:14:21;100894.81;;;12.69;73.64
21276;BME280;36472;52.170;20.884;2023-05-22T03:16:50;100889.34;;;12.72;73.86
21276;BME280;36472;52.170;20.884;2023-05-22T03:19:22;100892.72;;;12.75;73.93
21276;BME280;36472;52.170;20.884;2023-05-22T03:21:51;100894.41;;;12.76;73.89
21276;BME280;36472;52.170;20.884;2023-05-22T03:24:24;100884.91;;;12.73;74.37
21276;BME280;36472;52.170;20.884;2023-05-22T03:26:53;100891.03;;;12.73;74.66
21276;BME280;36472;52.170;20.884;2023-05-22T03:29:36;100894.19;;;12.79;75.55
21276;BME280;36472;52.170;20.884;2023-05-22T03:32:06;100887.56;;;12.86;75.86
21276;BME280;36472;52.170;20.884;2023-05-22T03:34:35;100881.69;;;12.95;75.42
21276;BME280;36472;52.170;20.884;2023-05-22T03:37:08;100886.53;;;13.01;75.50
21276;BME280;36472;52.170;20.884;2023-05-22T03:39:38;100884.22;;;13.09;76.01
21276;BME280;36472;52.170;20.884;2023-05-22T03:42:18;100884.66;;;13.16;75.61
21276;BME280;36472;52.170;20.884;2023-05-22T03:44:47;100886.25;;;13.19;75.54
21276;BME280;36472;52.170;20.884;2023-05-22T03:47:17;100889.00;;;13.17;76.07
21276;BME280;36472;52.170;20.884;2023-05-22T03:49:46;100888.13;;;13.17;76.49
21276;BME280;36472;52.170;20.884;2023-05-22T03:52:15;100892.34;;;13.19;76.60
21276;BME280;36472;52.170;20.884;2023-05-22T03:54:46;100879.06;;;13.21;76.80
21276;BME280;36472;52.170;20.884;2023-05-22T03:57:14;100891.44;;;13.33;76.46
21276;BME280;36472;52.170;20.884;2023-05-22T03:59:46;100896.31;;;13.39;76.26
21276;BME280;36472;52.170;20.884;2023-05-22T04:02:16;100893.00;;;13.49;76.24
21276;BME280;36472;52.170;20.884;2023-05-22T04:04:45;100895.88;;;13.58;75.57
21276;BME280;36472;52.170;20.884;2023-05-22T04:07:14;100894.16;;;13.70;75.41
21276;BME280;36472;52.170;20.884;2023-05-22T04:09:46;100898.06;;;13.77;75.79
21276;BME280;36472;52.170;20.884;2023-05-22T04:12:15;100898.25;;;13.87;75.21
21276;BME280;36472;52.170;20.884;2023-05-22T04:14:44;100899.28;;;13.97;74.58
21276;BME280;36472;52.170;20.884;2023-05-22T04:17:13;100894.91;;;14.09;73.72
21276;BME280;36472;52.170;20.884;2023-05-22T04:19:42;100890.41;;;14.22;72.12
21276;BME280;36472;52.170;20.884;2023-05-22T04:22:11;100890.38;;;14.35;71.47
21276;BME280;36472;52.170;20.884;2023-05-22T04:24:40;100887.53;;;14.50;70.09
21276;BME280;36472;52.170;20.884;2023-05-22T04:27:10;100883.66;;;14.67;68.98
21276;BME280;36472;52.170;20.884;2023-05-22T04:29:40;100881.91;;;14.78;67.95
21276;BME280;36472;52.170;20.884;2023-05-22T04:32:11;100881.47;;;14.96;66.34
21276;BME280;36472;52.170;20.884;2023-05-22T04:34:47;100881.38;;;15.09;64.62
21276;BME280;36472;52.170;20.884;2023-05-22T04:37:17;100878.28;;;15.26;64.67
21276;BME280;36472;52.170;20.884;2023-05-22T04:39:48;100880.22;;;15.36;64.66
21276;BME280;36472;52.170;20.884;2023-05-22T04:42:21;100879.97;;;15.50;62.75
21276;BME280;36472;52.170;20.884;2023-05-22T04:44:51;100878.88;;;15.64;63.24
21276;BME280;36472;52.170;20.884;2023-05-22T04:47:20;100881.66;;;15.74;62.26
21276;BME280;36472;52.170;20.884;2023-05-22T04:49:49;100884.31;;;15.85;60.50
21276;BME280;36472;52.170;20.884;2023-05-22T04:52:19;100884.31;;;15.96;60.65
21276;BME280;36472;52.170;20.884;2023-05-22T04:54:48;100885.13;;;16.08;60.25
21276;BME280;36472;52.170;20.884;2023-05-22T04:57:18;100887.78;;;16.19;60.74
21276;BME280;36472;52.170;20.884;2023-05-22T04:59:50;100885.44;;;16.26;59.11
21276;BME280;36472;52.170;20.884;2023-05-22T05:02:20;100884.31;;;16.40;58.33
21276;BME280;36472;52.170;20.884;2023-05-22T05:04:49;100886.53;;;16.56;58.62
21276;BME280;36472;52.170;20.884;2023-05-22T05:07:17;100883.69;;;16.69;57.21
21276;BME280;36472;52.170;20.884;2023-05-22T05:09:46;100886.66;;;16.87;57.26
21276;BME280;36472;52.170;20.884;2023-05-22T05:12:16;100890.94;;;16.99;56.20
21276;BME280;36472;52.170;20.884;2023-05-22T05:14:45;100879.88;;;17.15;55.53
21276;BME280;36472;52.170;20.884;2023-05-22T05:17:16;100883.72;;;17.32;55.33
21276;BME280;36472;52.170;20.884;2023-05-22T05:19:45;100892.06;;;17.48;55.35
21276;BME280;36472;52.170;20.884;2023-05-22T05:22:14;100892.97;;;17.68;55.18
21276;BME280;36472;52.170;20.884;2023-05-22T05:24:43;100893.47;;;17.83;53.80
21276;BME280;36472;52.170;20.884;2023-05-22T05:27:12;100904.00;;;17.94;53.70
21276;BME280;36472;52.170;20.884;2023-05-22T05:29:41;100892.13;;;18.08;52.65
21276;BME280;36472;52.170;20.884;2023-05-22T05:32:29;100893.00;;;18.28;53.39
21276;BME280;36472;52.170;20.884;2023-05-22T05:35:24;100887.00;;;18.56;53.22
21276;BME280;36472;52.170;20.884;2023-05-22T05:38:08;100890.66;;;18.84;51.24
21276;BME280;36472;52.170;20.884;2023-05-22T05:40:39;100903.81;;;19.05;50.41
21276;BME280;36472;52.170;20.884;2023-05-22T05:43:11;100896.31;;;19.28;51.90
21276;BME280;36472;52.170;20.884;2023-05-22T05:45:42;100895.50;;;19.55;50.11
21276;BME280;36472;52.170;20.884;2023-05-22T05:48:12;100898.00;;;19.76;48.97
21276;BME280;36472;52.170;20.884;2023-05-22T05:50:44;100897.44;;;19.73;49.29
21276;BME280;36472;52.170;20.884;2023-05-22T05:53:14;100901.09;;;19.62;49.95
21276;BME280;36472;52.170;20.884;2023-05-22T05:55:49;100895.34;;;19.67;48.32
21276;BME280;36472;52.170;20.884;2023-05-22T05:58:19;100897.38;;;19.83;48.61
21276;BME280;36472;52.170;20.884;2023-05-22T06:01:11;100906.31;;;19.91;49.79
21276;BME280;36472;52.170;20.884;2023-05-22T06:03:42;100898.06;;;20.12;49.27
21276;BME280;36472;52.170;20.884;2023-05-22T06:06:21;100900.25;;;20.45;46.83
21276;BME280;36472;52.170;20.884;2023-05-22T06:09:10;100891.91;;;20.30;45.90
21276;BME280;36472;52.170;20.884;2023-05-22T06:11:58;100901.56;;;20.31;46.72
21276;BME280;36472;52.170;20.884;2023-05-22T06:14:28;100895.88;;;20.44;47.06
21276;BME280;36472;52.170;20.884;2023-05-22T06:16:58;100889.31;;;20.56;47.30
21276;BME280;36472;52.170;20.884;2023-05-22T06:19:28;100884.75;;;20.66;46.56
21276;BME280;36472;52.170;20.884;2023-05-22T06:21:58;100886.97;;;20.71;46.17
21276;BME280;36472;52.170;20.884;2023-05-22T06:24:28;100886.75;;;20.64;46.20
21276;BME280;36472;52.170;20.884;2023-05-22T06:27:02;100880.28;;;20.93;44.93
21276;BME280;36472;52.170;20.884;2023-05-22T06:29:32;100875.16;;;21.26;44.41
21276;BME280;36472;52.170;20.884;2023-05-22T06:32:01;100877.13;;;21.50;46.02
21276;BME280;36472;52.170;20.884;2023-05-22T06:34:31;100874.56;;;21.66;42.93
21276;BME280;36472;52.170;20.884;2023-05-22T06:37:01;100875.28;;;21.85;43.55
21276;BME280;36472;52.170;20.884;2023-05-22T06:39:36;100887.91;;;22.09;42.18
21276;BME280;36472;52.170;20.884;2023-05-22T06:42:10;100884.88;;;22.20;41.13
21276;BME280;36472;52.170;20.884;2023-05-22T06:45:06;100883.13;;;22.46;40.17
21276;BME280;36472;52.170;20.884;2023-05-22T06:47:46;100878.44;;;22.39;38.96
21276;BME280;36472;52.170;20.884;2023-05-22T06:50:16;100883.97;;;22.54;36.32
21276;BME280;36472;52.170;20.884;2023-05-22T06:52:46;100881.47;;;22.69;36.44
21276;BME280;36472;52.170;20.884;2023-05-22T06:55:16;100883.06;;;22.21;36.46
21276;BME280;36472;52.170;20.884;2023-05-22T06:58:01;100880.13;;;22.57;37.05
21276;BME280;36472;52.170;20.884;2023-05-22T07:00:33;100866.56;;;22.58;37.99
21276;BME280;36472;52.170;20.884;2023-05-22T07:03:14;100871.56;;;22.86;39.10
21276;BME280;36472;52.170;20.884;2023-05-22T07:06:02;100871.69;;;23.18;36.53
21276;BME280;36472;52.170;20.884;2023-05-22T07:08:33;100866.72;;;23.14;35.74
21276;BME280;36472;52.170;20.884;2023-05-22T07:11:02;100874.75;;;23.06;37.06
21276;BME280;36472;52.170;20.884;2023-05-22T07:13:33;100877.59;;;22.96;37.87
21276;BME280;36472;52.170;20.884;2023-05-22T07:16:03;100871.75;;;23.09;37.55
21276;BME280;36472;52.170;20.884;2023-05-22T07:18:34;100865.00;;;23.22;36.90
21276;BME280;36472;52.170;20.884;2023-05-22T07:21:05;100869.31;;;23.39;38.26
21276;BME280;36472;52.170;20.884;2023-05-22T07:23:35;100872.00;;;23.39;37.57
21276;BME280;36472;52.170;20.884;2023-05-22T07:26:06;100871.66;;;23.34;37.74
21276;BME280;36472;52.170;20.884;2023-05-22T07:28:42;100869.00;;;23.34;37.02
21276;BME280;36472;52.170;20.884;2023-05-22T07:31:13;100867.69;;;23.13;37.16
21276;BME280;36472;52.170;20.884;2023-05-22T07:33:44;100872.72;;;23.17;37.76
21276;BME280;36472;52.170;20.884;2023-05-22T07:36:15;100865.84;;;23.14;37.85
21276;BME280;36472;52.170;20.884;2023-05-22T07:38:46;100869.06;;;23.09;37.69
21276;BME280;36472;52.170;20.884;2023-05-22T07:41:15;100861.50;;;22.88;37.56
21276;BME280;36472;52.170;20.884;2023-05-22T07:43:44;100860.31;;;23.24;37.66
21276;BME280;36472;52.170;20.884;2023-05-22T07:46:16;100865.94;;;23.45;40.19
21276;BME280;36472;52.170;20.884;2023-05-22T07:48:57;100857.81;;;23.62;37.66
21276;BME280;36472;52.170;20.884;2023-05-22T07:51:28;100865.22;;;23.51;36.90
21276;BME280;36472;52.170;20.884;2023-05-22T07:53:58;100863.94;;;23.39;37.63
21276;BME280;36472;52.170;20.884;2023-05-22T07:56:27;100862.00;;;23.25;37.75
21276;BME280;36472;52.170;20.884;2023-05-22T07:58:57;100856.75;;;23.31;37.89
21276;BME280;36472;52.170;20.884;2023-05-22T08:01:27;100859.25;;;23.41;38.43
21276;BME280;36472;52.170;20.884;2023-05-22T08:03:56;100856.50;;;23.58;37.25
21276;BME280;36472;52.170;20.884;2023-05-22T08:06:29;100862.69;;;23.58;38.61
21276;BME280;36472;52.170;20.884;2023-05-22T08:08:58;100858.84;;;23.61;37.08
21276;BME280;36472;52.170;20.884;2023-05-22T08:11:27;100861.78;;;23.74;40.96
21276;BME280;36472;52.170;20.884;2023-05-22T08:13:56;100859.59;;;23.78;37.94
21276;BME280;36472;52.170;20.884;2023-05-22T08:16:25;100857.75;;;23.78;37.02
21276;BME280;36472;52.170;20.884;2023-05-22T08:18:54;100855.09;;;23.70;36.11
21276;BME280;36472;52.170;20.884;2023-05-22T08:21:23;100856.00;;;23.94;36.88
21276;BME280;36472;52.170;20.884;2023-05-22T08:23:53;100854.88;;;24.11;35.96
21276;BME280;36472;52.170;20.884;2023-05-22T08:26:24;100846.25;;;24.24;35.48
21276;BME280;36472;52.170;20.884;2023-05-22T08:28:53;100846.47;;;24.37;35.50
21276;BME280;36472;52.170;20.884;2023-05-22T08:31:22;100855.38;;;24.38;35.08
21276;BME280;36472;52.170;20.884;2023-05-22T08:33:51;100848.56;;;24.50;35.86
21276;BME280;36472;52.170;20.884;2023-05-22T08:36:20;100849.94;;;24.46;33.68
21276;BME280;36472;52.170;20.884;2023-05-22T08:38:52;100850.66;;;24.40;33.29
21276;BME280;36472;52.170;20.884;2023-05-22T08:41:21;100845.06;;;24.50;34.73
21276;BME280;36472;52.170;20.884;2023-05-22T08:43:50;100837.50;;;24.68;34.77
21276;BME280;36472;52.170;20.884;2023-05-22T08:46:22;100834.06;;;24.97;35.12
21276;BME280;36472;52.170;20.884;2023-05-22T08:48:56;100834.13;;;25.19;34.40
21276;BME280;36472;52.170;20.884;2023-05-22T08:51:28;100839.88;;;25.16;32.83
21276;BME280;36472;52.170;20.884;2023-05-22T08:54:04;100836.06;;;24.95;31.90
21276;BME280;36472;52.170;20.884;2023-05-22T08:56:34;100831.25;;;24.91;32.53
21276;BME280;36472;52.170;20.884;2023-05-22T08:59:12;100838.28;;;24.92;32.17
21276;BME280;36472;52.170;20.884;2023-05-22T09:01:41;100843.56;;;24.85;31.53
21276;BME280;36472;52.170;20.884;2023-05-22T09:04:11;100834.22;;;24.81;31.86
21276;BME280;36472;52.170;20.884;2023-05-22T09:06:40;100827.72;;;24.90;31.71
21276;BME280;36472;52.170;20.884;2023-05-22T09:09:11;100823.56;;;25.02;31.38
21276;BME280;36472;52.170;20.884;2023-05-22T09:11:40;100820.59;;;25.12;31.42
21276;BME280;36472;52.170;20.884;2023-05-22T09:14:09;100814.84;;;25.00;30.66
21276;BME280;36472;52.170;20.884;2023-05-22T09:16:46;100815.47;;;24.73;31.29
21276;BME280;36472;52.170;20.884;2023-05-22T09:19:16;100816.50;;;24.72;31.65
21276;BME280;36472;52.170;20.884;2023-05-22T09:21:45;100811.19;;;24.78;32.12
21276;BME280;36472;52.170;20.884;2023-05-22T09:24:16;100808.53;;;25.08;32.31
21276;BME280;36472;52.170;20.884;2023-05-22T09:26:45;100805.13;;;25.29;32.65
21276;BME280;36472;52.170;20.884;2023-05-22T09:29:14;100807.72;;;25.37;31.57
21276;BME280;36472;52.170;20.884;2023-05-22T09:31:43;100806.31;;;25.42;31.87
21276;BME280;36472;52.170;20.884;2023-05-22T09:34:15;100806.25;;;25.35;32.08
21276;BME280;36472;52.170;20.884;2023-05-22T09:36:44;100799.75;;;25.29;31.96
21276;BME280;36472;52.170;20.884;2023-05-22T09:39:13;100797.06;;;25.29;32.65
21276;BME280;36472;52.170;20.884;2023-05-22T09:41:44;100796.59;;;25.26;32.23
21276;BME280;36472;52.170;20.884;2023-05-22T09:44:14;100793.63;;;25.35;32.13
21276;BME280;36472;52.170;20.884;2023-05-22T09:46:45;100795.47;;;25.20;32.41
21276;BME280;36472;52.170;20.884;2023-05-22T09:49:15;100792.06;;;25.11;32.84
21276;BME280;36472;52.170;20.884;2023-05-22T09:51:45;100792.78;;;25.20;32.48
21276;BME280;36472;52.170;20.884;2023-05-22T09:54:18;100791.75;;;25.36;32.63
21276;BME280;36472;52.170;20.884;2023-05-22T09:56:52;100797.59;;;25.39;32.17
21276;BME280;36472;52.170;20.884;2023-05-22T09:59:27;100793.25;;;25.09;31.18
21276;BME280;36472;52.170;20.884;2023-05-22T10:01:58;100794.47;;;25.06;31.22
21276;BME280;36472;52.170;20.884;2023-05-22T10:04:32;100785.94;;;25.32;31.87
21276;BME280;36472;52.170;20.884;2023-05-22T10:07:02;100786.56;;;25.34;30.95
21276;BME280;36472;52.170;20.884;2023-05-22T10:09:37;100787.53;;;25.27;32.52
21276;BME280;36472;52.170;20.884;2023-05-22T10:12:10;100788.03;;;25.22;32.75
21276;BME280;36472;52.170;20.884;2023-05-22T10:14:43;100792.78;;;25.20;33.28
21276;BME280;36472;52.170;20.884;2023-05-22T10:17:12;100789.72;;;25.08;32.24
21276;BME280;36472;52.170;20.884;2023-05-22T10:19:44;100786.19;;;24.93;32.49
21276;BME280;36472;52.170;20.884;2023-05-22T10:22:15;100784.63;;;24.69;31.79
21276;BME280;36472;52.170;20.884;2023-05-22T10:24:47;100785.75;;;24.89;31.77
21276;BME280;36472;52.170;20.884;2023-05-22T10:27:19;100783.31;;;25.54;31.21
21276;BME280;36472;52.170;20.884;2023-05-22T10:29:53;100780.38;;;25.92;32.31
21276;BME280;36472;52.170;20.884;2023-05-22T10:32:37;100783.31;;;25.75;30.82
21276;BME280;36472;52.170;20.884;2023-05-22T10:35:18;100783.75;;;25.79;30.57
21276;BME280;36472;52.170;20.884;2023-05-22T10:37:53;100780.53;;;25.69;30.91
21276;BME280;36472;52.170;20.884;2023-05-22T10:40:28;100777.72;;;25.55;31.70
21276;BME280;36472;52.170;20.884;2023-05-22T10:43:01;100776.59;;;25.65;30.53
21276;BME280;36472;52.170;20.884;2023-05-22T10:45:30;100773.25;;;25.63;31.38
21276;BME280;36472;52.170;20.884;2023-05-22T10:48:07;100770.91;;;25.74;30.93
21276;BME280;36472;52.170;20.884;2023-05-22T10:50:39;100772.50;;;25.90;31.81
21276;BME280;36472;52.170;20.884;2023-05-22T10:53:19;100769.81;;;26.34;31.81
21276;BME280;36472;52.170;20.884;2023-05-22T10:55:50;100763.50;;;26.76;31.43
21276;BME280;36472;52.170;20.884;2023-05-22T10:58:28;100767.69;;;27.27;30.11
21276;BME280;36472;52.170;20.884;2023-05-22T11:01:12;100757.91;;;27.68;28.27
21276;BME280;36472;52.170;20.884;2023-05-22T11:03:51;100759.84;;;27.94;28.37
21276;BME280;36472;52.170;20.884;2023-05-22T11:06:37;100757.94;;;27.81;29.45
21276;BME280;36472;52.170;20.884;2023-05-22T11:09:27;100756.88;;;27.82;27.20
21276;BME280;36472;52.170;20.884;2023-05-22T11:12:23;100762.13;;;27.97;27.55
21276;BME280;36472;52.170;20.884;2023-05-22T11:14:58;100761.72;;;28.07;26.90
21276;BME280;36472;52.170;20.884;2023-05-22T11:17:29;100758.41;;;27.98;26.20
21276;BME280;36472;52.170;20.884;2023-05-22T11:20:01;100752.28;;;27.63;27.02
21276;BME280;36472;52.170;20.884;2023-05-22T11:22:37;100750.78;;;27.53;27.17
21276;BME280;36472;52.170;20.884;2023-05-22T11:25:09;100742.91;;;27.52;25.81
21276;BME280;36472;52.170;20.884;2023-05-22T11:27:40;100739.16;;;27.46;27.38
21276;BME280;36472;52.170;20.884;2023-05-22T11:30:12;100740.81;;;27.47;27.00
21276;BME280;36472;52.170;20.884;2023-05-22T11:32:43;100736.34;;;27.19;26.42
21276;BME280;36472;52.170;20.884;2023-05-22T11:35:15;100724.69;;;27.12;26.99
21276;BME280;36472;52.170;20.884;2023-05-22T11:37:46;100723.50;;;26.80;28.29
21276;BME280;36472;52.170;20.884;2023-05-22T11:40:18;100719.34;;;26.77;28.65
21276;BME280;36472;52.170;20.884;2023-05-22T11:42:48;100720.88;;;26.93;29.08
21276;BME280;36472;52.170;20.884;2023-05-22T11:45:18;100718.38;;;26.92;27.59
21276;BME280;36472;52.170;20.884;2023-05-22T11:47:48;100727.81;;;27.09;27.19
21276;BME280;36472;52.170;20.884;2023-05-22T11:50:17;100719.28;;;27.12;28.13
21276;BME280;36472;52.170;20.884;2023-05-22T11:53:06;100724.31;;;27.22;27.21
21276;BME280;36472;52.170;20.884;2023-05-22T11:55:35;100714.09;;;27.04;27.33
21276;BME280;36472;52.170;20.884;2023-05-22T11:58:04;100721.44;;;26.82;28.33
21276;BME280;36472;52.170;20.884;2023-05-22T12:00:35;100724.91;;;26.41;28.39
21276;BME280;36472;52.170;20.884;2023-05-22T12:03:05;100717.75;;;26.05;29.20
21276;BME280;36472;52.170;20.884;2023-05-22T12:05:34;100708.63;;;25.99;28.99
21276;BME280;36472;52.170;20.884;2023-05-22T12:08:04;100716.06;;;25.97;29.25
21276;BME280;36472;52.170;20.884;2023-05-22T12:10:33;100701.81;;;26.03;29.51
21276;BME280;36472;52.170;20.884;2023-05-22T12:13:03;100703.91;;;26.08;29.65
21276;BME280;36472;52.170;20.884;2023-05-22T12:15:32;100703.97;;;26.15;29.37
21276;BME280;36472;52.170;20.884;2023-05-22T12:18:06;100702.22;;;26.00;28.92
21276;BME280;36472;52.170;20.884;2023-05-22T12:20:41;100700.00;;;25.89;28.80
21276;BME280;36472;52.170;20.884;2023-05-22T12:23:11;100693.50;;;25.98;30.01
21276;BME280;36472;52.170;20.884;2023-05-22T12:25:40;100697.41;;;25.96;30.32
21276;BME280;36472;52.170;20.884;2023-05-22T12:28:09;100694.22;;;25.92;29.12
21276;BME280;36472;52.170;20.884;2023-05-22T12:30:39;100692.31;;;25.86;29.25
21276;BME280;36472;52.170;20.884;2023-05-22T12:33:14;100687.22;;;25.69;29.71
21276;BME280;36472;52.170;20.884;2023-05-22T12:35:43;100680.72;;;25.64;29.70
21276;BME280;36472;52.170;20.884;2023-05-22T12:38:12;100684.38;;;25.56;30.49
21276;BME280;36472;52.170;20.884;2023-05-22T12:40:41;100678.22;;;25.62;29.90
21276;BME280;36472;52.170;20.884;2023-05-22T12:43:10;100678.94;;;25.71;30.27
21276;BME280;36472;52.170;20.884;2023-05-22T12:45:39;100677.38;;;25.62;30.23
21276;BME280;36472;52.170;20.884;2023-05-22T12:48:09;100682.97;;;25.60;29.21
21276;BME280;36472;52.170;20.884;2023-05-22T12:50:39;100671.94;;;25.55;28.87
21276;BME280;36472;52.170;20.884;2023-05-22T12:53:09;100675.91;;;25.37;29.05
21276;BME280;36472;52.170;20.884;2023-05-22T12:55:38;100676.91;;;25.36;29.09
21276;BME280;36472;52.170;20.884;2023-05-22T12:58:08;100673.66;;;25.41;29.47
21276;BME280;36472;52.170;20.884;2023-05-22T13:00:37;100666.03;;;25.45;28.54
21276;BME280;36472;52.170;20.884;2023-05-22T13:03:07;100670.97;;;25.41;29.29
21276;BME280;36472;52.170;20.884;2023-05-22T13:05:39;100666.38;;;25.35;29.37